Time;durP1;ratioP1;P1;durP2;ratioP2;P2;SDS_P1;SDS_P2;PMS_P1;PMS_P2;Temp;Humidity;BMP_temperature;BMP_pressure;BME280_temperature;BME280_humidity;BME280_pressure;Samples;Min_cycle;Max_cycle;Signal;HPM_P1;HPM_P2
2023/10/05 00:02:10;;;;;;;9.38;2.53;;;13.10;99.90;;;;;;7395281;19;20455;-65
2023/10/05 00:04:41;;;;;;;9.15;2.65;;;13.10;99.90;;;;;;7389986;19;20463;-67
2023/10/05 00:07:10;;;;;;;12.77;3.03;;;13.10;99.90;;;;;;7372656;19;20097;-66
2023/10/05 00:09:38;;;;;;;12.30;3.15;;;13.10;99.90;;;;;;7376477;19;20026;-65
2023/10/05 00:12:07;;;;;;;11.70;2.67;;;13.10;99.90;;;;;;7393868;19;20351;-64
2023/10/05 00:14:36;;;;;;;8.48;3.08;;;13.10;99.90;;;;;;7393302;19;20018;-65
2023/10/05 00:17:08;;;;;;;12.02;3.15;;;13.20;99.90;;;;;;7393598;19;20010;-65
2023/10/05 00:19:38;;;;;;;8.13;2.78;;;13.20;99.90;;;;;;7393083;19;20462;-64
2023/10/05 00:22:12;;;;;;;12.93;3.83;;;13.20;99.90;;;;;;7391294;19;20018;-64
2023/10/05 00:24:40;;;;;;;9.48;2.88;;;13.20;99.90;;;;;;7381951;19;20037;-66
2023/10/05 00:27:09;;;;;;;11.43;3.03;;;13.30;99.90;;;;;;7373074;19;20020;-66
2023/10/05 00:29:45;;;;;;;13.23;2.90;;;13.30;99.90;;;;;;7370862;19;20041;-66
2023/10/05 00:32:15;;;;;;;11.73;3.47;;;13.40;99.90;;;;;;7374497;19;20376;-66
2023/10/05 00:34:51;;;;;;;12.85;2.90;;;13.30;99.90;;;;;;7395010;19;20018;-64
2023/10/05 00:37:19;;;;;;;9.93;3.03;;;13.30;99.90;;;;;;7394701;19;20014;-64
2023/10/05 00:39:49;;;;;;;12.52;4.00;;;13.40;99.90;;;;;;7392549;19;20438;-65
2023/10/05 00:42:18;;;;;;;13.00;2.88;;;13.40;99.90;;;;;;7394005;19;20006;-65
2023/10/05 00:44:44;;;;;;;12.48;3.20;;;13.40;99.90;;;;;;7392823;19;20006;-63
2023/10/05 00:47:14;;;;;;;12.15;3.20;;;13.40;99.90;;;;;;7392972;19;20014;-64
2023/10/05 00:52:15;;;;;;;12.48;2.88;;;13.30;99.90;;;;;;7400595;19;20345;-63
2023/10/05 00:54:58;;;;;;;8.82;3.50;;;13.30;99.90;;;;;;7397188;19;20017;-63
2023/10/05 00:57:27;;;;;;;8.93;3.00;;;13.40;99.90;;;;;;7403145;19;20030;-63
2023/10/05 01:02:36;;;;;;;13.13;3.05;;;13.30;99.90;;;;;;7400536;19;20017;-64
2023/10/05 01:05:47;;;;;;;11.27;3.70;;;13.40;99.90;;;;;;7394650;19;20501;-64
2023/10/05 01:08:03;;;;;;;10.18;3.35;;;13.40;99.90;;;;;;7378678;19;20685;-66
2023/10/05 01:10:48;;;;;;;9.63;3.17;;;13.40;99.90;;;;;;7382634;19;20010;-67
2023/10/05 01:13:32;;;;;;;8.48;3.20;;;13.40;99.90;;;;;;7376949;19;20618;-67
2023/10/05 01:15:59;;;;;;;11.48;2.65;;;13.40;99.90;;;;;;7379922;19;20063;-67
2023/10/05 01:18:47;;;;;;;10.05;3.05;;;13.40;99.90;;;;;;7392787;19;20019;-66
2023/10/05 01:21:16;;;;;;;10.07;2.70;;;13.40;99.90;;;;;;7398490;19;20003;-64
2023/10/05 01:23:48;;;;;;;10.77;4.35;;;13.50;99.90;;;;;;7400561;19;20078;-65
2023/10/05 01:26:16;;;;;;;8.63;3.10;;;13.40;99.90;;;;;;7377971;19;20018;-66
2023/10/05 01:28:43;;;;;;;10.45;3.10;;;13.50;99.90;;;;;;7378676;19;20132;-67
2023/10/05 01:31:21;;;;;;;13.82;3.30;;;13.40;99.90;;;;;;7376678;19;20010;-65
2023/10/05 01:33:47;;;;;;;11.25;2.88;;;13.50;99.90;;;;;;7379438;19;20025;-65
2023/10/05 01:36:18;;;;;;;11.27;3.72;;;13.50;99.90;;;;;;7376506;19;20023;-65
2023/10/05 01:38:45;;;;;;;7.80;2.80;;;13.50;99.90;;;;;;7374871;19;20022;-66
2023/10/05 01:41:21;;;;;;;13.82;3.40;;;13.60;99.90;;;;;;7377186;19;20024;-66
2023/10/05 01:43:48;;;;;;;11.93;3.00;;;13.60;99.90;;;;;;7378721;19;20018;-66
2023/10/05 01:46:15;;;;;;;8.23;2.35;;;13.60;99.90;;;;;;7373016;19;20018;-66
2023/10/05 01:48:41;;;;;;;7.60;3.03;;;13.60;99.90;;;;;;7375954;19;20022;-66
2023/10/05 01:51:14;;;;;;;15.48;3.10;;;13.70;99.90;;;;;;7373364;19;20078;-66
2023/10/05 01:53:40;;;;;;;7.95;2.95;;;13.70;99.90;;;;;;7372529;19;20052;-66
2023/10/05 01:56:17;;;;;;;12.77;3.83;;;13.70;99.90;;;;;;7371462;19;20797;-66
2023/10/05 01:58:46;;;;;;;9.60;2.88;;;13.70;99.90;;;;;;7375309;19;20026;-66
2023/10/05 02:01:13;;;;;;;12.50;2.95;;;13.60;99.90;;;;;;7376091;19;20037;-67
2023/10/05 02:03:40;;;;;;;8.80;2.78;;;13.60;99.90;;;;;;7380704;19;20015;-66
2023/10/05 02:06:23;;;;;;;11.40;3.00;;;13.60;99.90;;;;;;7397640;19;20010;-64
2023/10/05 02:08:49;;;;;;;10.25;2.90;;;13.50;99.90;;;;;;7396970;19;20011;-64
2023/10/05 02:11:27;;;;;;;9.38;3.50;;;13.60;99.90;;;;;;7397166;19;20333;-64
2023/10/05 02:14:01;;;;;;;9.18;3.17;;;13.50;99.90;;;;;;7397174;19;20010;-64
2023/10/05 02:16:54;;;;;;;10.07;3.13;;;13.60;99.90;;;;;;7396323;19;20014;-64
2023/10/05 02:19:38;;;;;;;8.82;2.25;;;13.50;99.90;;;;;;7396513;19;20015;-64
2023/10/05 02:22:23;;;;;;;11.60;2.58;;;13.50;99.90;;;;;;7396670;19;20006;-64
2023/10/05 02:24:54;;;;;;;8.88;2.50;;;13.50;99.90;;;;;;7368404;19;20845;-66
2023/10/05 02:27:26;;;;;;;8.80;3.28;;;13.40;99.90;;;;;;7398234;19;20450;-64
2023/10/05 02:29:54;;;;;;;12.30;3.47;;;13.40;99.90;;;;;;7398500;19;20040;-64
2023/10/05 02:32:33;;;;;;;12.20;3.35;;;13.30;99.90;;;;;;7401179;19;20323;-64
2023/10/05 02:35:39;;;;;;;13.10;3.40;;;13.30;99.90;;;;;;7396231;19;20011;-64
2023/10/05 02:38:07;;;;;;;9.13;2.92;;;13.30;99.90;;;;;;7392255;19;20126;-66
2023/10/05 02:40:37;;;;;;;9.45;2.50;;;13.30;99.90;;;;;;7384975;19;20015;-64
2023/10/05 02:43:28;;;;;;;11.25;2.88;;;13.30;99.90;;;;;;7395840;19;20070;-63
2023/10/05 02:46:09;;;;;;;8.35;3.63;;;13.30;99.90;;;;;;7393068;19;20034;-64
2023/10/05 02:48:36;;;;;;;9.88;2.88;;;13.30;99.90;;;;;;7383752;19;20018;-65
2023/10/05 02:51:06;;;;;;;8.98;3.05;;;13.40;99.90;;;;;;7373005;19;20018;-66
2023/10/05 02:53:44;;;;;;;6.38;2.90;;;13.40;99.90;;;;;;7370951;19;20792;-63
2023/10/05 02:56:25;;;;;;;12.05;3.63;;;13.40;99.90;;;;;;7377892;19;20516;-66
2023/10/05 02:58:56;;;;;;;8.82;3.15;;;13.50;99.90;;;;;;7395724;19;20010;-66
2023/10/05 03:01:23;;;;;;;10.70;3.58;;;13.40;99.90;;;;;;7400072;19;20462;-64
2023/10/05 03:03:55;;;;;;;9.98;2.72;;;13.50;99.90;;;;;;7398040;19;20006;-66
2023/10/05 03:06:53;;;;;;;10.60;3.17;;;13.40;99.90;;;;;;7398421;19;20339;-64
2023/10/05 03:09:21;;;;;;;17.55;3.78;;;13.40;99.90;;;;;;7398601;19;20640;-64
2023/10/05 03:11:50;;;;;;;13.23;3.90;;;13.40;99.90;;;;;;7396908;19;20010;-64
2023/10/05 03:14:17;;;;;;;10.63;3.25;;;13.50;99.90;;;;;;7396484;19;20070;-64
2023/10/05 03:16:56;;;;;;;9.40;3.10;;;13.50;99.90;;;;;;7401151;19;20462;-64
2023/10/05 03:19:39;;;;;;;10.52;3.17;;;13.40;99.90;;;;;;7398023;19;20484;-65
2023/10/05 03:22:12;;;;;;;10.93;3.20;;;13.40;99.90;;;;;;7398747;19;20047;-65
2023/10/05 03:24:42;;;;;;;11.27;3.38;;;13.40;99.90;;;;;;7390243;19;20018;-67
2023/10/05 03:27:09;;;;;;;9.77;3.80;;;13.40;99.90;;;;;;7381421;19;20018;-67
2023/10/05 03:29:37;;;;;;;14.73;3.90;;;13.50;99.90;;;;;;7370436;19;20114;-67
2023/10/05 03:34:58;;;;;;;12.77;3.47;;;13.40;99.90;;;;;;7396034;19;20031;-65
2023/10/05 03:37:39;;;;;;;7.55;2.83;;;13.40;99.90;;;;;;7397082;19;20010;-64
2023/10/05 03:40:19;;;;;;;9.13;2.97;;;13.40;99.90;;;;;;7395581;19;20014;-65
2023/10/05 03:42:57;;;;;;;7.85;3.20;;;13.40;99.90;;;;;;7393630;19;20426;-65
2023/10/05 03:45:26;;;;;;;12.90;4.00;;;13.40;99.90;;;;;;7377535;19;20022;-67
2023/10/05 03:47:53;;;;;;;12.57;3.13;;;13.40;99.90;;;;;;7368315;19;20727;-67
2023/10/05 03:50:24;;;;;;;11.23;3.97;;;13.30;99.90;;;;;;7392553;19;20074;-65
2023/10/05 03:52:59;;;;;;;9.45;3.53;;;13.30;99.90;;;;;;7397073;19;20018;-65
2023/10/05 03:55:25;;;;;;;9.95;3.40;;;13.30;99.90;;;;;;7393820;19;20028;-62
2023/10/05 03:57:54;;;;;;;11.73;3.40;;;13.30;99.90;;;;;;7382564;19;20134;-65
2023/10/05 04:00:23;;;;;;;11.20;3.80;;;13.30;99.90;;;;;;7365148;19;20592;-66
2023/10/05 04:02:54;;;;;;;12.68;3.88;;;13.30;99.90;;;;;;7368088;19;20014;-66
2023/10/05 04:05:22;;;;;;;12.32;4.07;;;13.30;99.90;;;;;;7372872;19;20050;-66
2023/10/05 04:07:50;;;;;;;10.65;4.00;;;13.30;99.90;;;;;;7365698;19;20027;-67
2023/10/05 04:10:45;;;;;;;14.52;3.53;;;13.30;99.90;;;;;;7368406;19;20018;-66
2023/10/05 04:13:14;;;;;;;11.98;3.20;;;13.20;99.90;;;;;;7370409;19;20354;-67
2023/10/05 04:15:41;;;;;;;10.73;3.92;;;13.30;99.90;;;;;;7370040;19;20046;-66
2023/10/05 04:18:11;;;;;;;12.48;3.38;;;13.30;99.90;;;;;;7367615;19;20018;-66
2023/10/05 04:20:38;;;;;;;13.90;4.05;;;13.30;99.90;;;;;;7367993;19;20480;-66
2023/10/05 04:23:04;;;;;;;11.57;3.45;;;13.30;99.90;;;;;;7371746;19;20022;-66
2023/10/05 04:25:30;;;;;;;12.10;3.05;;;13.30;99.90;;;;;;7373914;19;20034;-66
2023/10/05 04:27:57;;;;;;;11.82;3.38;;;13.30;99.90;;;;;;7374128;19;20074;-66
2023/10/05 04:30:24;;;;;;;12.27;3.78;;;13.30;99.90;;;;;;7376937;19;20836;-66
2023/10/05 04:32:50;;;;;;;11.45;3.70;;;13.30;99.90;;;;;;7373826;19;20019;-67
2023/10/05 04:35:22;;;;;;;13.18;4.20;;;13.30;99.90;;;;;;7376595;19;20072;-66
2023/10/05 04:37:54;;;;;;;12.57;3.50;;;13.30;99.90;;;;;;7374434;19;20026;-66
2023/10/05 04:40:24;;;;;;;16.23;3.75;;;13.20;99.90;;;;;;7376963;19;20453;-66
2023/10/05 04:42:59;;;;;;;13.23;3.65;;;13.20;99.90;;;;;;7373826;19;20047;-67
2023/10/05 04:45:27;;;;;;;11.85;3.42;;;13.20;99.90;;;;;;7377733;19;20045;-65
2023/10/05 04:47:58;;;;;;;10.70;3.20;;;13.10;99.90;;;;;;7375548;19;20435;-66
2023/10/05 04:50:26;;;;;;;9.20;3.35;;;13.10;99.90;;;;;;7377608;19;20029;-65
2023/10/05 04:52:52;;;;;;;11.73;3.42;;;13.00;99.90;;;;;;7371155;19;20058;-65
2023/10/05 04:55:31;;;;;;;12.30;3.88;;;13.00;99.90;;;;;;7377211;19;20592;-65
2023/10/05 05:03:34;;;;;;;14.82;3.85;;;12.90;99.90;;;;;;7372546;19;20026;-66
2023/10/05 05:06:14;;;;;;;13.10;4.03;;;12.90;99.90;;;;;;7377247;19;20109;-66
2023/10/05 05:08:44;;;;;;;13.38;3.88;;;12.90;99.90;;;;;;7375513;19;20018;-66
2023/10/05 05:11:18;;;;;;;11.57;3.50;;;12.90;99.90;;;;;;7376576;19;20018;-66
2023/10/05 05:13:51;;;;;;;9.93;3.28;;;13.00;99.90;;;;;;7372467;19;20022;-67
2023/10/05 05:16:18;;;;;;;13.57;4.53;;;13.00;99.90;;;;;;7372489;19;20130;-66
2023/10/05 05:18:45;;;;;;;18.25;4.20;;;13.10;99.90;;;;;;7377187;19;20010;-66
2023/10/05 05:21:11;;;;;;;14.02;4.40;;;13.20;99.90;;;;;;7376175;19;20015;-66
2023/10/05 05:23:42;;;;;;;10.57;3.72;;;13.10;99.90;;;;;;7373459;19;20025;-66
2023/10/05 05:26:09;;;;;;;9.57;3.60;;;13.20;99.90;;;;;;7373524;19;20054;-66
2023/10/05 05:28:37;;;;;;;13.13;3.90;;;13.20;99.90;;;;;;7371190;19;20506;-66
2023/10/05 05:31:07;;;;;;;13.65;4.07;;;13.30;99.90;;;;;;7376314;19;20018;-66
2023/10/05 05:33:38;;;;;;;13.77;3.83;;;13.30;99.90;;;;;;7372179;19;20631;-66
2023/10/05 05:36:12;;;;;;;15.02;4.32;;;13.40;99.90;;;;;;7376378;19;20032;-65
2023/10/05 05:38:39;;;;;;;16.27;3.95;;;13.30;99.90;;;;;;7377643;19;20482;-66
2023/10/05 05:41:11;;;;;;;17.17;4.45;;;13.40;99.90;;;;;;7375129;19;20109;-66
2023/10/05 05:43:41;;;;;;;13.93;3.70;;;13.40;99.90;;;;;;7374474;19;20073;-66
2023/10/05 05:46:14;;;;;;;14.13;4.13;;;13.40;99.90;;;;;;7376037;19;20132;-65
2023/10/05 05:48:48;;;;;;;14.27;3.67;;;13.40;99.90;;;;;;7371973;19;20643;-63
2023/10/05 05:51:15;;;;;;;12.48;3.75;;;13.50;99.90;;;;;;7382855;19;20014;-61
2023/10/05 05:53:54;;;;;;;13.32;4.65;;;13.50;99.90;;;;;;7401153;19;20017;-64
2023/10/05 05:56:28;;;;;;;13.27;3.80;;;13.50;99.90;;;;;;7399283;19;20010;-64
2023/10/05 05:59:09;;;;;;;10.90;3.90;;;13.50;99.90;;;;;;7397608;19;20389;-64
2023/10/05 06:01:36;;;;;;;14.23;4.32;;;13.50;99.90;;;;;;7399404;19;20034;-64
2023/10/05 06:04:03;;;;;;;16.42;3.63;;;13.50;99.90;;;;;;7398466;19;20030;-64
2023/10/05 06:06:37;;;;;;;13.13;3.58;;;13.50;99.90;;;;;;7399814;19;20011;-64
2023/10/05 06:09:13;;;;;;;11.30;3.15;;;13.50;99.90;;;;;;7399308;19;20074;-64
2023/10/05 06:11:54;;;;;;;13.65;3.15;;;13.60;99.90;;;;;;7397596;19;20007;-65
2023/10/05 06:14:27;;;;;;;18.08;3.65;;;13.60;99.90;;;;;;7394152;19;20022;-62
2023/10/05 06:17:04;;;;;;;11.18;3.25;;;13.50;99.90;;;;;;7399582;19;20048;-65
2023/10/05 06:19:30;;;;;;;13.70;3.60;;;13.60;99.90;;;;;;7398331;19;20011;-65
2023/10/05 06:21:56;;;;;;;11.55;3.25;;;13.60;99.90;;;;;;7395064;19;20470;-66
2023/10/05 06:24:24;;;;;;;10.73;3.33;;;13.60;99.90;;;;;;7377206;19;20041;-67
2023/10/05 06:26:55;;;;;;;13.27;3.28;;;13.70;99.90;;;;;;7400260;19;20015;-64
2023/10/05 06:29:37;;;;;;;17.02;4.13;;;13.80;99.90;;;;;;7396735;19;20014;-64
2023/10/05 06:32:17;;;;;;;;;;;13.80;99.90;;;;;;7397193;19;20450;-63
2023/10/05 06:34:44;;;;;;;14.95;4.47;;;13.80;99.90;;;;;;7396421;19;19923;-64
2023/10/05 06:37:39;;;;;;;10.70;3.83;;;13.80;99.90;;;;;;7396644;19;20379;-64
2023/10/05 06:40:21;;;;;;;15.20;3.83;;;13.80;99.90;;;;;;7396332;19;20460;-64
2023/10/05 06:42:51;;;;;;;16.63;3.78;;;13.80;99.90;;;;;;7399935;19;20010;-64
2023/10/05 06:45:23;;;;;;;10.05;3.40;;;13.80;99.90;;;;;;7393529;19;20014;-60
2023/10/05 06:47:50;;;;;;;12.48;4.03;;;13.90;99.90;;;;;;7395334;19;20070;-64
2023/10/05 06:50:17;;;;;;;13.77;4.18;;;13.90;99.90;;;;;;7400093;19;20526;-65
2023/10/05 06:52:47;;;;;;;8.88;3.33;;;13.90;99.90;;;;;;7395014;19;20015;-64
2023/10/05 06:55:17;;;;;;;9.95;3.45;;;14.00;99.90;;;;;;7392728;19;20014;-66
2023/10/05 06:57:45;;;;;;;13.30;4.15;;;14.00;99.90;;;;;;7370912;19;20014;-67
2023/10/05 07:00:16;;;;;;;11.15;3.70;;;14.00;99.90;;;;;;7374906;19;20876;-66
2023/10/05 07:02:47;;;;;;;12.75;3.80;;;14.10;99.90;;;;;;7373269;19;20392;-66
2023/10/05 07:05:14;;;;;;;14.07;3.53;;;14.20;99.90;;;;;;7375481;19;20022;-66
2023/10/05 07:07:41;;;;;;;9.57;3.72;;;14.20;99.90;;;;;;7374013;19;20018;-66
2023/10/05 07:10:10;;;;;;;13.43;3.75;;;14.20;99.90;;;;;;7374975;19;20022;-67
2023/10/05 07:12:46;;;;;;;13.00;3.55;;;14.30;99.90;;;;;;7375719;19;20021;-65
2023/10/05 07:15:19;;;;;;;17.40;3.75;;;14.30;99.90;;;;;;7371380;19;20530;-68
2023/10/05 07:17:49;;;;;;;12.93;3.30;;;14.30;99.90;;;;;;7374817;19;20500;-68
2023/10/05 07:20:16;;;;;;;13.10;3.67;;;14.30;99.90;;;;;;7374407;19;20025;-68
2023/10/05 07:22:50;;;;;;;10.82;4.78;;;14.30;99.90;;;;;;7375450;19;20109;-68
2023/10/05 07:25:19;;;;;;;91.00;81.05;;;14.30;99.90;;;;;;7374687;19;20014;-63
2023/10/05 07:27:47;;;;;;;55.45;43.30;;;14.50;99.90;;;;;;7376182;19;20026;-65
2023/10/05 07:30:14;;;;;;;15.50;5.03;;;14.70;99.90;;;;;;7373132;19;20510;-66
2023/10/05 07:32:44;;;;;;;13.73;7.80;;;14.80;99.90;;;;;;7372810;19;20018;-67
2023/10/05 07:35:13;;;;;;;19.77;10.18;;;14.80;99.90;;;;;;7375508;19;20022;-67
2023/10/05 07:37:39;;;;;;;16.67;8.38;;;14.90;99.90;;;;;;7382107;19;20055;-67
2023/10/05 07:40:09;;;;;;;20.27;10.68;;;15.00;99.90;;;;;;7380889;19;20030;-66
2023/10/05 07:42:37;;;;;;;18.48;7.75;;;15.10;99.90;;;;;;7383561;19;20093;-67
2023/10/05 07:45:07;;;;;;;15.32;5.35;;;15.20;99.90;;;;;;7383921;19;20025;-67
2023/10/05 07:47:44;;;;;;;11.43;3.95;;;15.20;99.90;;;;;;7374588;19;20773;-67
2023/10/05 07:50:11;;;;;;;12.95;4.82;;;15.10;99.90;;;;;;7371094;19;20042;-66
2023/10/05 07:52:38;;;;;;;12.40;4.00;;;15.20;99.90;;;;;;7367584;19;20070;-67
2023/10/05 07:55:06;;;;;;;20.33;5.03;;;15.20;99.90;;;;;;7378153;19;20033;-66
2023/10/05 07:57:32;;;;;;;17.52;4.20;;;15.30;99.90;;;;;;7373946;19;20014;-61
2023/10/05 07:59:59;;;;;;;10.38;4.38;;;15.40;99.90;;;;;;7379176;19;20026;-63
2023/10/05 08:02:25;;;;;;;12.10;3.70;;;15.50;99.90;;;;;;7378296;19;20366;-61
2023/10/05 08:04:52;;;;;;;11.90;3.40;;;15.50;99.90;;;;;;7384730;19;20095;-62
2023/10/05 08:07:18;;;;;;;7.55;3.15;;;15.50;99.90;;;;;;7380466;19;20021;-62
2023/10/05 08:09:44;;;;;;;13.05;3.78;;;15.50;99.90;;;;;;7383776;19;20023;-64
2023/10/05 08:12:12;;;;;;;7.85;2.90;;;15.60;99.90;;;;;;7384110;19;20685;-62
2023/10/05 08:14:39;;;;;;;12.65;3.58;;;15.80;99.90;;;;;;7379810;19;20025;-62
2023/10/05 08:17:05;;;;;;;14.27;4.18;;;15.80;99.90;;;;;;7383167;19;20025;-63
2023/10/05 08:19:32;;;;;;;14.30;4.03;;;15.80;99.90;;;;;;7373436;19;20023;-64
2023/10/05 08:21:58;;;;;;;13.35;3.78;;;15.90;99.90;;;;;;7382875;19;20025;-64
2023/10/05 08:24:24;;;;;;;13.77;3.58;;;15.90;99.90;;;;;;7378956;19;20014;-64
2023/10/05 08:26:57;;;;;;;14.75;3.28;;;15.90;99.90;;;;;;7383160;19;21065;-64
2023/10/05 08:29:24;;;;;;;11.27;3.75;;;16.10;99.90;;;;;;7382190;19;20577;-63
2023/10/05 08:31:52;;;;;;;9.60;2.95;;;16.10;99.90;;;;;;7378682;19;20015;-63
2023/10/05 08:34:22;;;;;;;21.38;5.30;;;16.20;99.90;;;;;;7378078;19;20014;-65
2023/10/05 08:36:49;;;;;;;16.08;4.05;;;16.40;99.90;;;;;;7379153;19;20363;-64
2023/10/05 08:39:25;;;;;;;17.17;3.60;;;16.50;99.90;;;;;;7376108;19;20018;-65
2023/10/05 08:41:55;;;;;;;11.70;2.90;;;16.50;99.90;;;;;;7378344;19;20037;-65
2023/10/05 08:44:28;;;;;;;12.07;3.80;;;16.60;99.90;;;;;;7379385;19;20015;-66
2023/10/05 08:46:58;;;;;;;13.65;3.60;;;16.70;99.90;;;;;;7381509;19;20018;-66
2023/10/05 08:49:26;;;;;;;13.13;3.30;;;16.70;99.90;;;;;;7383833;19;20018;-64
2023/10/05 08:51:53;;;;;;;15.80;3.25;;;16.80;99.90;;;;;;7389630;19;20082;-64
2023/10/05 08:54:27;;;;;;;11.38;3.45;;;16.90;99.90;;;;;;7383583;19;20055;-61
2023/10/05 08:56:58;;;;;;;11.80;3.20;;;17.00;99.90;;;;;;7393315;19;20120;-62
2023/10/05 08:59:26;;;;;;;15.75;4.22;;;17.00;99.90;;;;;;7395275;19;20018;-66
2023/10/05 09:01:59;;;;;;;11.52;3.45;;;17.00;99.90;;;;;;7395748;19;20010;-65
2023/10/05 09:04:59;;;;;;;11.10;3.40;;;16.90;99.90;;;;;;7397657;19;20045;-64
2023/10/05 09:07:39;;;;;;;11.05;3.58;;;16.80;99.90;;;;;;7394626;19;20092;-64
2023/10/05 09:10:07;;;;;;;10.68;3.58;;;16.70;99.90;;;;;;7398310;19;20115;-64
2023/10/05 09:12:35;;;;;;;18.05;3.80;;;16.50;99.90;;;;;;7397615;19;20022;-64
2023/10/05 09:17:57;;;;;;;9.43;3.33;;;16.30;99.90;;;;;;7398059;19;20351;-65
2023/10/05 09:20:31;;;;;;;12.20;4.57;;;16.30;99.90;;;;;;7394436;19;20116;-65
2023/10/05 09:23:06;;;;;;;15.40;3.85;;;16.30;99.90;;;;;;7396823;19;20023;-65
2023/10/05 09:25:38;;;;;;;13.48;3.50;;;16.20;99.90;;;;;;7395517;19;20030;-61
2023/10/05 09:28:16;;;;;;;10.85;3.85;;;16.20;99.90;;;;;;7383942;19;20367;-65
2023/10/05 09:30:59;;;;;;;12.93;4.30;;;16.20;99.90;;;;;;7394744;19;20086;-65
2023/10/05 09:33:28;;;;;;;13.23;5.00;;;16.10;99.90;;;;;;7391393;19;20841;-65
2023/10/05 09:36:07;;;;;;;14.15;4.95;;;16.10;99.90;;;;;;7378721;19;20117;-65
2023/10/05 09:38:38;;;;;;;13.35;4.45;;;16.10;99.90;;;;;;7375279;19;20030;-63
2023/10/05 09:41:06;;;;;;;10.38;4.60;;;16.20;99.90;;;;;;7373531;19;20824;-65
2023/10/05 09:43:38;;;;;;;11.40;4.38;;;16.40;99.90;;;;;;7376512;19;20095;-65
2023/10/05 09:46:11;;;;;;;13.35;3.83;;;16.40;99.90;;;;;;7375986;19;20044;-65
2023/10/05 09:48:40;;;;;;;14.90;4.03;;;16.50;99.90;;;;;;7374549;19;20018;-66
2023/10/05 09:51:08;;;;;;;20.63;3.95;;;16.60;99.90;;;;;;7374994;19;20019;-66
2023/10/05 09:53:35;;;;;;;14.07;3.80;;;16.70;99.90;;;;;;7372757;19;20399;-66
2023/10/05 09:56:03;;;;;;;13.90;3.42;;;16.90;99.90;;;;;;7375773;19;20030;-66
2023/10/05 09:58:30;;;;;;;15.40;4.35;;;16.90;99.90;;;;;;7375918;19;20087;-67
2023/10/05 10:00:57;;;;;;;9.88;3.30;;;17.00;99.90;;;;;;7374447;19;20026;-67
2023/10/05 10:03:23;;;;;;;15.68;4.10;;;17.00;99.90;;;;;;7371995;19;20520;-67
2023/10/05 10:06:12;;;;;;;15.55;3.22;;;16.90;99.90;;;;;;7374590;19;20390;-67
2023/10/05 10:08:51;;;;;;;12.70;3.70;;;16.90;99.90;;;;;;7375239;19;20018;-66
2023/10/05 10:11:19;;;;;;;12.88;3.50;;;16.90;99.90;;;;;;7376574;19;20344;-66
2023/10/05 10:13:59;;;;;;;14.20;3.30;;;16.90;99.90;;;;;;7375873;19;20672;-66
2023/10/05 10:16:32;;;;;;;13.35;3.70;;;16.90;99.90;;;;;;7374085;19;20029;-64
2023/10/05 10:19:07;;;;;;;15.65;4.15;;;16.80;99.90;;;;;;7375131;19;20014;-66
2023/10/05 10:22:20;;;;;;;15.18;4.03;;;16.70;99.90;;;;;;7374841;19;20914;-67
2023/10/05 10:24:29;;;;;;;15.25;3.80;;;16.60;99.90;;;;;;7370486;19;20027;-66
2023/10/05 10:27:07;;;;;;;16.60;4.85;;;16.50;99.90;;;;;;7376252;19;20025;-66
2023/10/05 10:29:55;;;;;;;12.93;3.78;;;16.50;99.90;;;;;;7370760;19;20105;-65
2023/10/05 10:32:24;;;;;;;15.80;3.75;;;16.50;99.90;;;;;;7372063;19;20021;-66
2023/10/05 10:34:57;;;;;;;12.75;3.65;;;16.40;99.90;;;;;;7370236;19;20010;-66
2023/10/05 10:37:39;;;;;;;12.85;4.22;;;16.30;99.90;;;;;;7372306;19;20370;-67
2023/10/05 10:43:06;;;;;;;12.98;4.50;;;16.20;99.90;;;;;;7375195;19;20026;-67
2023/10/05 10:45:41;;;;;;;12.10;3.88;;;16.30;99.90;;;;;;7375529;19;20470;-63
2023/10/05 10:48:12;;;;;;;14.23;3.92;;;16.30;99.90;;;;;;7371817;19;20547;-67
2023/10/05 10:50:39;;;;;;;18.27;3.80;;;16.40;99.90;;;;;;7372264;19;20030;-67
2023/10/05 10:53:17;;;;;;;16.52;4.60;;;16.40;99.90;;;;;;7371305;19;20026;-68
2023/10/05 10:56:03;;;;;;;15.00;4.13;;;16.40;99.90;;;;;;7372914;19;20118;-68
2023/10/05 10:58:32;;;;;;;18.25;4.55;;;16.60;99.90;;;;;;7370883;19;20624;-67
2023/10/05 11:01:02;;;;;;;14.27;4.35;;;16.60;99.90;;;;;;7370917;19;20029;-66
2023/10/05 11:03:30;;;;;;;20.77;4.95;;;16.60;99.90;;;;;;7374702;19;20041;-63
2023/10/05 11:06:01;;;;;;;32.42;6.45;;;16.50;99.90;;;;;;7369422;19;20052;-64
2023/10/05 11:08:33;;;;;;;14.80;4.38;;;16.40;99.90;;;;;;7374262;19;20098;-65
2023/10/05 11:11:15;;;;;;;12.38;3.40;;;16.10;99.90;;;;;;7371119;19;20039;-65
2023/10/05 11:13:49;;;;;;;12.60;4.65;;;15.90;99.90;;;;;;7375726;19;21006;-65
2023/10/05 11:16:15;;;;;;;12.75;5.45;;;15.70;99.90;;;;;;7374196;19;20019;-67
2023/10/05 11:18:57;;;;;;;15.23;4.60;;;15.60;99.90;;;;;;7374262;19;20015;-67
2023/10/05 11:21:26;;;;;;;;;;;15.40;99.90;;;;;;7369201;19;20019;-67
2023/10/05 11:23:57;;;;;;;15.75;4.60;;;15.40;99.90;;;;;;7373270;19;19926;-66
2023/10/05 11:26:28;;;;;;;15.00;4.97;;;15.30;99.90;;;;;;7371805;19;20025;-66
2023/10/05 11:28:56;;;;;;;18.88;5.38;;;15.30;99.90;;;;;;7372177;19;20098;-62
2023/10/05 11:31:33;;;;;;;21.00;6.00;;;15.30;99.90;;;;;;7372061;19;20022;-63
2023/10/05 11:34:09;;;;;;;16.85;6.00;;;15.40;99.90;;;;;;7372586;19;20022;-62
2023/10/05 11:36:39;;;;;;;13.05;4.82;;;15.50;99.90;;;;;;7373059;19;20019;-65
2023/10/05 11:39:22;;;;;;;16.95;4.93;;;15.60;99.90;;;;;;7372147;19;20024;-66
2023/10/05 11:41:51;;;;;;;14.15;4.97;;;15.60;99.90;;;;;;7371487;19;20025;-66
2023/10/05 11:44:23;;;;;;;10.77;4.43;;;15.70;99.90;;;;;;7370635;19;20027;-66
2023/10/05 11:46:54;;;;;;;8.23;3.75;;;15.70;99.90;;;;;;7373641;19;20566;-64
2023/10/05 11:49:32;;;;;;;10.18;4.00;;;15.80;99.90;;;;;;7370935;19;20026;-66
2023/10/05 11:51:59;;;;;;;10.38;3.55;;;16.60;99.90;;;;;;7370225;19;20019;-67
2023/10/05 11:54:30;;;;;;;12.15;3.70;;;18.10;99.90;;;;;;7368109;19;20035;-68
2023/10/05 11:56:57;;;;;;;7.72;3.25;;;19.50;99.90;;;;;;7374755;19;20375;-62
2023/10/05 11:59:36;;;;;;;10.27;3.38;;;19.90;99.90;;;;;;7369749;19;20018;-62
2023/10/05 12:02:08;;;;;;;9.13;2.97;;;20.60;99.90;;;;;;7372725;19;20027;-60
2023/10/05 12:04:39;;;;;;;10.05;3.58;;;20.50;99.90;;;;;;7371433;19;20022;-62
2023/10/05 12:07:06;;;;;;;12.32;3.55;;;20.00;99.90;;;;;;7369702;19;20039;-62
2023/10/05 12:09:33;;;;;;;13.23;3.80;;;20.20;99.90;;;;;;7373140;19;20025;-62
2023/10/05 12:12:02;;;;;;;11.85;3.47;;;20.70;99.90;;;;;;7371371;19;20031;-63
2023/10/05 12:14:29;;;;;;;9.18;3.78;;;20.20;99.90;;;;;;7368981;19;20014;-63
2023/10/05 12:16:57;;;;;;;8.68;3.20;;;20.20;99.90;;;;;;7371994;19;20726;-68
2023/10/05 12:19:30;;;;;;;16.02;4.88;;;21.00;99.90;;;;;;7369356;19;20025;-70
2023/10/05 12:22:06;;;;;;;8.50;2.92;;;21.90;99.90;;;;;;7367080;19;20576;-69
2023/10/05 12:24:33;;;;;;;10.45;3.35;;;22.40;99.90;;;;;;7372414;19;20019;-61
2023/10/05 12:27:13;;;;;;;13.45;3.65;;;21.90;99.90;;;;;;7371544;19;20044;-68
2023/10/05 12:29:42;;;;;;;14.85;3.53;;;22.30;99.90;;;;;;7371987;19;20018;-63
2023/10/05 12:32:13;;;;;;;12.48;3.50;;;23.10;99.90;;;;;;7365909;19;20026;-70
2023/10/05 12:34:43;;;;;;;10.20;3.97;;;23.30;99.90;;;;;;7366238;19;20015;-70
2023/10/05 12:37:17;;;;;;;8.05;3.53;;;23.70;99.90;;;;;;7375607;19;20523;-69
2023/10/05 12:39:45;;;;;;;8.50;2.75;;;23.60;99.90;;;;;;7371326;19;20018;-68
2023/10/05 12:42:14;;;;;;;8.20;2.78;;;23.80;99.90;;;;;;7373303;19;20026;-66
2023/10/05 12:44:43;;;;;;;10.00;2.70;;;24.10;99.90;;;;;;7367804;19;21575;-66
2023/10/05 12:47:09;;;;;;;7.97;2.42;;;24.20;99.90;;;;;;7376141;19;20102;-66
2023/10/05 12:49:35;;;;;;;12.15;2.72;;;24.20;99.90;;;;;;7375916;19;20018;-66
2023/10/05 12:52:02;;;;;;;8.93;3.58;;;24.40;99.90;;;;;;7376487;19;20078;-66
2023/10/05 12:54:29;;;;;;;8.73;2.90;;;23.90;99.90;;;;;;7373602;19;20026;-66
2023/10/05 12:57:09;;;;;;;9.63;2.40;;;23.20;99.90;;;;;;7375847;19;20033;-65
2023/10/05 12:59:35;;;;;;;10.05;2.40;;;22.30;99.90;;;;;;7375028;19;20131;-66
2023/10/05 13:02:13;;;;;;;9.70;3.08;;;21.80;99.90;;;;;;7373963;19;20115;-66
2023/10/05 13:04:39;;;;;;;10.73;3.25;;;21.40;99.90;;;;;;7374523;19;20110;-67
2023/10/05 13:07:05;;;;;;;9.10;3.22;;;21.20;99.90;;;;;;7376650;19;20015;-67
2023/10/05 13:09:32;;;;;;;8.32;2.85;;;21.20;99.90;;;;;;7373736;19;20035;-67
2023/10/05 13:11:58;;;;;;;9.07;3.08;;;21.30;99.90;;;;;;7375383;19;20806;-67
2023/10/05 13:14:26;;;;;;;15.77;2.90;;;21.10;99.90;;;;;;7371964;19;20018;-67
2023/10/05 13:16:55;;;;;;;8.25;2.40;;;21.20;99.90;;;;;;7378758;19;20017;-68
2023/10/05 13:19:24;;;;;;;8.77;3.08;;;21.60;99.90;;;;;;7376619;19;20050;-66
2023/10/05 13:21:53;;;;;;;8.80;2.88;;;21.70;99.90;;;;;;7376758;19;20018;-68
2023/10/05 13:24:20;;;;;;;9.27;2.28;;;21.70;99.90;;;;;;7375140;19;20364;-68